createdAt,value
2017-11-27T00:00:39.184Z,98461.67
2017-11-27T00:01:41.831Z,98460.09
2017-11-27T00:02:44.462Z,98460.85
2017-11-27T00:03:47.072Z,98456.63
2017-11-27T00:04:50.109Z,98457.20
2017-11-27T00:05:52.741Z,98467.32
2017-11-27T00:06:55.403Z,98458.82
2017-11-27T00:07:58.074Z,98452.98
2017-11-27T00:09:00.687Z,98456.41
2017-11-27T00:10:03.311Z,98455.76
2017-11-27T00:11:06.294Z,98463.47
2017-11-27T00:12:08.897Z,98465.41
2017-11-27T00:13:11.515Z,98467.09
2017-11-27T00:14:14.200Z,98458.33
2017-11-27T00:15:16.861Z,98455.89
2017-11-27T00:16:19.449Z,98457.29
2017-11-27T00:17:22.572Z,98465.88
2017-11-27T00:18:25.161Z,98457.47
2017-11-27T00:19:27.796Z,98459.76
2017-11-27T00:20:30.407Z,98460.51
2017-11-27T00:21:33.253Z,98457.82
2017-11-27T00:22:35.996Z,98455.76
2017-11-27T00:23:39.178Z,98453.97
2017-11-27T00:24:41.817Z,98451.69
2017-11-27T00:25:44.354Z,98464.24
2017-11-27T00:26:47.184Z,98455.55
2017-11-27T00:27:49.755Z,98449.93
2017-11-27T00:28:52.328Z,98460.61
2017-11-27T00:29:55.348Z,98457.23
2017-11-27T00:30:57.970Z,98454.37
2017-11-27T00:32:00.508Z,98458.86
2017-11-27T00:33:03.159Z,98453.90
2017-11-27T00:34:05.719Z,98453.48
2017-11-27T00:35:08.404Z,98451.62
2017-11-27T00:36:11.370Z,98448.83
2017-11-27T00:37:13.962Z,98455.83
2017-11-27T00:38:16.592Z,98444.97
2017-11-27T00:39:19.211Z,98463.58
2017-11-27T00:40:21.846Z,98464.75
2017-11-27T00:41:24.504Z,98458.04
2017-11-27T00:42:27.549Z,98457.74
2017-11-27T00:43:30.223Z,98455.17
2017-11-27T00:44:32.839Z,98452.08
2017-11-27T00:45:35.475Z,98442.16
2017-11-27T00:46:38.068Z,98442.91
2017-11-27T00:47:40.676Z,98446.53
2017-11-27T00:48:43.787Z,98438.30
2017-11-27T00:49:46.446Z,98440.52
2017-11-27T00:50:49.066Z,98442.67
2017-11-27T00:51:51.657Z,98428.03
2017-11-27T00:52:54.255Z,98445.55
2017-11-27T00:53:56.950Z,98435.84
2017-11-27T00:55:00.097Z,98445.18
2017-11-27T00:56:02.889Z,98434.09
2017-11-27T00:57:05.712Z,98438.81
2017-11-27T00:58:08.480Z,98437.19
2017-11-27T00:59:11.186Z,98443.45
2017-11-27T01:00:13.943Z,98448.93
2017-11-27T01:01:17.299Z,98448.93
2017-11-27T01:02:20.023Z,98437.02
2017-11-27T01:03:22.647Z,98438.35
2017-11-27T01:04:25.247Z,98446.94
2017-11-27T01:05:27.906Z,98449.98
2017-11-27T01:06:30.586Z,98443.19
2017-11-27T01:07:33.657Z,98448.05
2017-11-27T01:08:36.279Z,98446.54
2017-11-27T01:09:38.891Z,98439.83
2017-11-27T01:10:41.523Z,98439.22
2017-11-27T01:11:44.234Z,98440.63
2017-11-27T01:12:46.860Z,98447.94
2017-11-27T01:13:49.888Z,98442.20
2017-11-27T01:14:52.490Z,98437.35
2017-11-27T01:15:55.119Z,98437.47
2017-11-27T01:16:57.729Z,98445.18
2017-11-27T01:18:00.341Z,98450.98
2017-11-27T01:19:02.949Z,98448.11
2017-11-27T01:20:05.858Z,98451.73
2017-11-27T01:21:08.493Z,98448.11
2017-11-27T01:22:11.163Z,98443.84
2017-11-27T01:23:13.780Z,98448.33
2017-11-27T01:24:17.333Z,98448.70
2017-11-27T01:25:19.961Z,98443.15
2017-11-27T01:26:22.916Z,98454.59
2017-11-27T01:27:25.577Z,98440.17
2017-11-27T01:28:28.307Z,98446.13
2017-11-27T01:29:30.900Z,98442.97
2017-11-27T01:30:33.586Z,98451.25
2017-11-27T01:31:36.212Z,98449.34
2017-11-27T01:32:39.348Z,98450.91
2017-11-27T01:33:41.959Z,98450.36
2017-11-27T01:34:44.563Z,98442.20
2017-11-27T01:35:47.304Z,98446.05
2017-11-27T01:36:49.900Z,98450.32
2017-11-27T01:37:52.515Z,98445.09
2017-11-27T01:38:55.604Z,98443.58
2017-11-27T01:39:58.201Z,98450.23
2017-11-27T01:41:00.890Z,98450.02
2017-11-27T01:42:03.497Z,98456.13
2017-11-27T01:43:06.176Z,98447.33
2017-11-27T01:44:08.814Z,98451.85
2017-11-27T01:45:11.739Z,98448.58
2017-11-27T01:46:14.361Z,98451.75
2017-11-27T01:47:16.969Z,98446.33
2017-11-27T01:48:19.601Z,98452.73
2017-11-27T01:49:22.242Z,98454.95
2017-11-27T01:50:24.859Z,98441.92
2017-11-27T01:51:27.796Z,98453.02
2017-11-27T01:52:30.419Z,98456.36
2017-11-27T01:53:33.090Z,98457.64
2017-11-27T01:54:35.702Z,98452.23
2017-11-27T01:55:38.354Z,98444.16
2017-11-27T01:56:40.987Z,98449.48
2017-11-27T01:57:43.987Z,98450.59
2017-11-27T01:58:46.622Z,98453.63
2017-11-27T01:59:49.217Z,98452.17
2017-11-27T02:00:51.830Z,98448.42
2017-11-27T02:01:54.425Z,98446.03
2017-11-27T02:02:57.052Z,98446.20
2017-11-27T02:03:59.995Z,98434.99
2017-11-27T02:05:02.687Z,98444.81
2017-11-27T02:06:05.312Z,98450.48
2017-11-27T02:07:07.931Z,98445.55
2017-11-27T02:08:10.613Z,98443.16
2017-11-27T02:09:13.285Z,98441.19
2017-11-27T02:10:16.263Z,98442.19
2017-11-27T02:11:18.883Z,98454.73
2017-11-27T02:12:21.524Z,98441.82
2017-11-27T02:13:24.133Z,98439.86
2017-11-27T02:14:26.780Z,98437.05
2017-11-27T02:15:29.399Z,98428.86
2017-11-27T02:16:32.414Z,98440.48
2017-11-27T02:17:34.985Z,98443.69
2017-11-27T02:18:37.736Z,98447.61
2017-11-27T02:19:40.373Z,98442.59
2017-11-27T02:20:43.035Z,98450.60
2017-11-27T02:21:45.644Z,98437.97
2017-11-27T02:22:49.138Z,98439.44
2017-11-27T02:23:51.816Z,98440.55
2017-11-27T02:24:54.491Z,98437.05
2017-11-27T02:25:57.149Z,98436.80
2017-11-27T02:26:59.789Z,98440.67
2017-11-27T02:28:02.410Z,98447.67
2017-11-27T02:29:05.455Z,98437.39
2017-11-27T02:30:08.067Z,98443.12
2017-11-27T02:31:10.673Z,98444.44
2017-11-27T02:32:13.268Z,98439.59
2017-11-27T02:33:15.854Z,98449.75
2017-11-27T02:34:18.482Z,98440.69
2017-11-27T02:35:21.474Z,98439.00
2017-11-27T02:36:24.194Z,98425.28
2017-11-27T02:37:26.790Z,98437.73
2017-11-27T02:38:29.419Z,98426.86
2017-11-27T02:39:31.992Z,98438.31
2017-11-27T02:40:34.623Z,98438.13
2017-11-27T02:41:37.701Z,98429.73
2017-11-27T02:42:40.319Z,98424.40
2017-11-27T02:43:42.885Z,98423.94
2017-11-27T02:44:45.507Z,98432.70
2017-11-27T02:45:48.079Z,98425.76
2017-11-27T02:46:50.685Z,98419.03
2017-11-27T02:47:53.714Z,98421.38
2017-11-27T02:48:56.344Z,98423.71
2017-11-27T02:49:58.965Z,98428.73
2017-11-27T02:51:01.586Z,98429.95
2017-11-27T02:52:04.214Z,98424.52
2017-11-27T02:53:06.799Z,98420.14
2017-11-27T02:54:09.923Z,98415.48
2017-11-27T02:55:12.578Z,98421.42
2017-11-27T02:56:15.196Z,98416.59
2017-11-27T02:57:17.834Z,98427.45
2017-11-27T02:58:20.489Z,98412.63
2017-11-27T02:59:23.118Z,98410.27
2017-11-27T03:00:26.136Z,98414.83
2017-11-27T03:01:28.783Z,98416.59
2017-11-27T03:02:31.384Z,98415.30
2017-11-27T03:03:34.027Z,98414.61
2017-11-27T03:04:36.630Z,98414.59
2017-11-27T03:05:39.240Z,98419.84
2017-11-27T03:06:42.333Z,98425.73
2017-11-27T03:07:44.950Z,98421.06
2017-11-27T03:08:47.533Z,98407.23
2017-11-27T03:09:50.203Z,98412.95
2017-11-27T03:10:52.755Z,98420.46
2017-11-27T03:11:55.397Z,98413.13
2017-11-27T03:12:58.367Z,98417.84
2017-11-27T03:14:00.996Z,98413.72
2017-11-27T03:15:03.487Z,98404.59
2017-11-27T03:16:06.061Z,98406.75
2017-11-27T03:17:08.681Z,98421.05
2017-11-27T03:18:11.282Z,98415.97
2017-11-27T03:19:14.362Z,98411.70
2017-11-27T03:20:17.021Z,98409.16
2017-11-27T03:21:19.589Z,98413.20
2017-11-27T03:22:22.193Z,98404.47
2017-11-27T03:23:24.768Z,98411.94
2017-11-27T03:24:27.377Z,98401.60
2017-11-27T03:25:30.366Z,98399.98
2017-11-27T03:26:32.989Z,98404.22
2017-11-27T03:27:35.601Z,98401.44
2017-11-27T03:28:38.234Z,98403.66
2017-11-27T03:29:40.940Z,98400.34
2017-11-27T03:30:43.585Z,98405.09
2017-11-27T03:31:46.720Z,98403.46
2017-11-27T03:32:49.483Z,98404.92
2017-11-27T03:33:52.088Z,98401.97
2017-11-27T03:34:54.869Z,98404.62
2017-11-27T03:35:57.582Z,98407.33
2017-11-27T03:37:00.251Z,98400.59
2017-11-27T03:38:03.313Z,98408.34
2017-11-27T03:39:05.958Z,98401.07
2017-11-27T03:40:08.564Z,98396.87
2017-11-27T03:41:11.231Z,98400.44
2017-11-27T03:42:14.047Z,98389.60
2017-11-27T03:43:16.657Z,98396.12
2017-11-27T03:44:19.624Z,98389.41
2017-11-27T03:45:22.244Z,98395.56
2017-11-27T03:46:24.890Z,98387.92
2017-11-27T03:47:27.475Z,98391.01
2017-11-27T03:48:30.103Z,98385.68
2017-11-27T03:49:32.703Z,98383.65
2017-11-27T03:50:35.643Z,98382.27
2017-11-27T03:51:38.259Z,98385.58
2017-11-27T03:52:40.859Z,98387.16
2017-11-27T03:53:43.480Z,98390.58
2017-11-27T03:54:46.062Z,98381.60
2017-11-27T03:55:48.692Z,98390.64
2017-11-27T03:56:51.278Z,98385.70
2017-11-27T03:57:53.889Z,98385.53
2017-11-27T03:58:56.485Z,98384.14
2017-11-27T03:59:59.111Z,98386.66
2017-11-27T04:01:01.789Z,98379.64
2017-11-27T04:02:04.424Z,98381.83
2017-11-27T04:03:07.532Z,98386.77
2017-11-27T04:04:12.866Z,98382.28
2017-11-27T04:05:15.502Z,98375.16
2017-11-27T04:06:18.105Z,98379.84
2017-11-27T04:07:20.696Z,98376.92
2017-11-27T04:08:23.288Z,98384.60
2017-11-27T04:09:26.322Z,98380.83
2017-11-27T04:10:28.890Z,98384.60
2017-11-27T04:11:31.478Z,98374.59
2017-11-27T04:12:34.047Z,98375.75
2017-11-27T04:13:36.650Z,98378.56
2017-11-27T04:14:39.284Z,98376.17
2017-11-27T04:15:42.365Z,98381.58
2017-11-27T04:16:45.008Z,98372.73
2017-11-27T04:17:47.534Z,98369.66
2017-11-27T04:18:50.129Z,98369.08
2017-11-27T04:19:53.686Z,98365.48
2017-11-27T04:20:56.332Z,98366.19
2017-11-27T04:21:58.943Z,98356.42
2017-11-27T04:23:01.552Z,98363.82
2017-11-27T04:24:04.073Z,98359.34
2017-11-27T04:25:06.578Z,98362.47
2017-11-27T04:26:09.160Z,98359.50
2017-11-27T04:27:11.787Z,98357.33
2017-11-27T04:28:14.423Z,98350.41
2017-11-27T04:29:17.013Z,98357.47
2017-11-27T04:30:19.626Z,98344.83
2017-11-27T04:31:22.236Z,98343.26
2017-11-27T04:32:25.304Z,98351.59
2017-11-27T04:33:28.000Z,98345.23
2017-11-27T04:34:30.681Z,98343.82
2017-11-27T04:35:33.251Z,98355.66
2017-11-27T04:36:35.845Z,98338.52
2017-11-27T04:37:38.463Z,98349.27
2017-11-27T04:38:41.499Z,98346.69
2017-11-27T04:39:44.145Z,98348.20
2017-11-27T04:40:46.764Z,98355.84
2017-11-27T04:41:49.378Z,98334.20
2017-11-27T04:42:52.064Z,98333.16
2017-11-27T04:43:54.762Z,98328.65
2017-11-27T04:44:58.215Z,98338.11
2017-11-27T04:46:00.869Z,98331.98
2017-11-27T04:47:03.546Z,98333.84
2017-11-27T04:48:06.143Z,98338.16
2017-11-27T04:49:08.776Z,98337.98
2017-11-27T04:50:11.837Z,98333.78
2017-11-27T04:51:14.425Z,98329.23
2017-11-27T04:52:17.018Z,98337.11
2017-11-27T04:53:19.649Z,98326.62
2017-11-27T04:54:22.267Z,98336.34
2017-11-27T04:55:24.880Z,98327.03
2017-11-27T04:56:27.825Z,98326.21
2017-11-27T04:57:30.466Z,98335.47
2017-11-27T04:58:33.084Z,98329.36
2017-11-27T04:59:35.622Z,98322.45
2017-11-27T05:00:38.161Z,98329.04
2017-11-27T05:01:40.663Z,98323.45
2017-11-27T05:02:43.660Z,98320.00
2017-11-27T05:03:46.173Z,98322.17
2017-11-27T05:04:48.747Z,98316.53
2017-11-27T05:05:51.366Z,98307.08
2017-11-27T05:06:53.981Z,98314.93
2017-11-27T05:07:56.541Z,98308.99
2017-11-27T05:08:59.154Z,98307.71
2017-11-27T05:10:01.736Z,98309.11
2017-11-27T05:11:04.344Z,98309.39
2017-11-27T05:12:07.022Z,98306.23
2017-11-27T05:13:09.792Z,98311.89
2017-11-27T05:14:12.772Z,98310.91
2017-11-27T05:15:15.381Z,98310.16
2017-11-27T05:16:17.976Z,98308.55
2017-11-27T05:17:20.603Z,98310.31
2017-11-27T05:18:23.234Z,98310.20
2017-11-27T05:19:25.866Z,98316.04
2017-11-27T05:20:28.838Z,98315.16
2017-11-27T05:21:31.537Z,98310.25
2017-11-27T05:22:34.130Z,98319.25
2017-11-27T05:23:36.735Z,98311.48
2017-11-27T05:24:39.562Z,98316.25
2017-11-27T05:25:42.358Z,98309.71
2017-11-27T05:26:45.421Z,98313.22
2017-11-27T05:27:48.018Z,98311.75
2017-11-27T05:28:50.683Z,98306.89
2017-11-27T05:29:53.363Z,98299.40
2017-11-27T05:30:56.028Z,98307.04
2017-11-27T05:31:58.676Z,98309.89
2017-11-27T05:33:01.750Z,98309.28
2017-11-27T05:34:04.461Z,98306.52
2017-11-27T05:35:07.093Z,98304.08
2017-11-27T05:36:09.697Z,98305.66
2017-11-27T05:37:12.438Z,98308.09
2017-11-27T05:38:15.084Z,98312.52
2017-11-27T05:39:18.172Z,98306.91
2017-11-27T05:40:20.741Z,98299.03
2017-11-27T05:41:23.379Z,98297.12
2017-11-27T05:42:26.001Z,98300.40
2017-11-27T05:43:28.644Z,98290.42
2017-11-27T05:44:31.261Z,98290.47
2017-11-27T05:45:34.302Z,98292.63
2017-11-27T05:46:36.868Z,98295.67
2017-11-27T05:47:39.441Z,98297.23
2017-11-27T05:48:42.098Z,98295.97
2017-11-27T05:49:44.684Z,98297.08
2017-11-27T05:50:47.303Z,98294.97
2017-11-27T05:51:50.431Z,98293.52
2017-11-27T05:52:53.056Z,98291.05
2017-11-27T05:53:55.663Z,98295.05
2017-11-27T05:54:58.387Z,98288.41
2017-11-27T05:56:00.960Z,98290.17
2017-11-27T05:57:03.719Z,98285.17
2017-11-27T05:58:06.916Z,98285.87
2017-11-27T05:59:09.890Z,98277.17
2017-11-27T06:00:12.512Z,98283.41
2017-11-27T06:01:15.192Z,98283.19
2017-11-27T06:02:17.854Z,98279.38
2017-11-27T06:03:20.489Z,98280.56
2017-11-27T06:04:23.491Z,98281.25
2017-11-27T06:05:26.117Z,98282.88
2017-11-27T06:06:28.749Z,98285.27
2017-11-27T06:07:31.376Z,98287.31
2017-11-27T06:08:33.978Z,98283.97
2017-11-27T06:09:36.596Z,98277.35
2017-11-27T06:10:39.693Z,98285.15
2017-11-27T06:11:42.329Z,98285.98
2017-11-27T06:12:44.954Z,98291.42
2017-11-27T06:13:47.576Z,98279.05
2017-11-27T06:14:50.265Z,98288.03
2017-11-27T06:15:52.887Z,98275.33
2017-11-27T06:16:55.880Z,98268.63
2017-11-27T06:17:58.503Z,98273.06
2017-11-27T06:19:01.128Z,98268.58
2017-11-27T06:20:03.781Z,98267.41
2017-11-27T06:21:06.455Z,98268.20
2017-11-27T06:22:09.466Z,98265.24
2017-11-27T06:23:12.913Z,98262.99
2017-11-27T06:24:15.863Z,98259.84
2017-11-27T06:25:18.914Z,98257.61
2017-11-27T06:26:21.600Z,98264.86
2017-11-27T06:27:24.296Z,98256.28
2017-11-27T06:28:26.904Z,98252.94
2017-11-27T06:29:30.019Z,98254.71
2017-11-27T06:30:32.684Z,98252.78
2017-11-27T06:31:35.414Z,98258.19
2017-11-27T06:32:37.969Z,98247.23
2017-11-27T06:33:40.581Z,98239.71
2017-11-27T06:34:43.137Z,98247.41
2017-11-27T06:35:46.175Z,98246.42
2017-11-27T06:36:48.792Z,98245.86
2017-11-27T06:37:51.416Z,98238.72
2017-11-27T06:38:54.164Z,98247.34
2017-11-27T06:39:56.820Z,98245.98
2017-11-27T06:40:59.495Z,98241.35
2017-11-27T06:42:02.342Z,98253.09
2017-11-27T06:43:04.815Z,98247.66
2017-11-27T06:44:07.302Z,98250.03
2017-11-27T06:45:09.846Z,98253.30
2017-11-27T06:46:13.126Z,98256.98
2017-11-27T06:47:15.799Z,98256.88
2017-11-27T06:48:18.923Z,98249.69
2017-11-27T06:49:21.666Z,98246.14
2017-11-27T06:50:24.312Z,98236.47
2017-11-27T06:51:26.984Z,98243.77
2017-11-27T06:52:29.598Z,98260.97
2017-11-27T06:53:32.229Z,98256.06
2017-11-27T06:54:35.315Z,98254.38
2017-11-27T06:55:37.945Z,98242.64
2017-11-27T06:56:40.571Z,98234.84
2017-11-27T06:57:43.275Z,98242.44
2017-11-27T06:58:45.905Z,98230.77
2017-11-27T06:59:48.602Z,98234.20
2017-11-27T07:00:51.561Z,98226.50
2017-11-27T07:01:54.194Z,98224.28
2017-11-27T07:02:56.801Z,98239.67
2017-11-27T07:03:59.471Z,98226.27
2017-11-27T07:05:02.135Z,98223.70
2017-11-27T07:06:04.886Z,98220.55
2017-11-27T07:07:07.628Z,98224.22
2017-11-27T07:08:10.284Z,98218.69
2017-11-27T07:09:12.907Z,98211.69
2017-11-27T07:10:15.533Z,98208.89
2017-11-27T07:11:18.155Z,98205.27
2017-11-27T07:12:20.909Z,98205.97
2017-11-27T07:13:23.607Z,98212.34
2017-11-27T07:14:26.314Z,98197.50
2017-11-27T07:15:30.048Z,98202.46
2017-11-27T07:16:32.709Z,98188.93
2017-11-27T07:17:35.341Z,98191.80
2017-11-27T07:18:38.457Z,98197.55
2017-11-27T07:19:41.067Z,98198.44
2017-11-27T07:20:43.736Z,98194.48
2017-11-27T07:21:46.385Z,98201.70
2017-11-27T07:22:48.970Z,98199.91
2017-11-27T07:23:51.626Z,98200.78
2017-11-27T07:24:54.694Z,98198.44
2017-11-27T07:25:57.256Z,98197.45
2017-11-27T07:26:59.883Z,98199.03
2017-11-27T07:28:02.548Z,98199.66
2017-11-27T07:29:05.187Z,98188.80
2017-11-27T07:30:07.884Z,98188.69
2017-11-27T07:31:11.245Z,98188.10
2017-11-27T07:32:13.902Z,98186.89
2017-11-27T07:33:16.526Z,98185.25
2017-11-27T07:34:19.159Z,98181.21
2017-11-27T07:35:21.796Z,98182.39
2017-11-27T07:36:24.751Z,98180.99
2017-11-27T07:37:31.750Z,98179.82
2017-11-27T07:40:42.286Z,98180.81
2017-11-27T07:41:44.917Z,98173.11
2017-11-27T07:42:47.533Z,98170.77
2017-11-27T07:43:50.160Z,98162.77
2017-11-27T07:44:52.870Z,98169.56
2017-11-27T07:45:55.518Z,98168.78
2017-11-27T07:46:58.212Z,98158.63
2017-11-27T07:48:00.830Z,98162.48
2017-11-27T07:49:03.844Z,98157.94
2017-11-27T07:50:06.531Z,98169.19
2017-11-27T07:51:09.168Z,98162.66
2017-11-27T07:52:11.811Z,98170.25
2017-11-27T07:53:14.552Z,98155.84
2017-11-27T07:54:17.315Z,98157.93
2017-11-27T07:55:20.492Z,98161.09
2017-11-27T07:56:23.137Z,98169.78
2017-11-27T07:57:25.771Z,98171.54
2017-11-27T07:58:28.479Z,98160.50
2017-11-27T07:59:31.427Z,98150.85
2017-11-27T08:00:34.069Z,98159.73
2017-11-27T08:01:36.969Z,98151.34
2017-11-27T08:02:39.605Z,98167.14
2017-11-27T08:03:42.211Z,98169.59
2017-11-27T08:04:44.854Z,98157.86
2017-11-27T08:05:47.467Z,98169.78
2017-11-27T08:06:50.150Z,98156.94
2017-11-27T08:07:53.261Z,98142.64
2017-11-27T08:08:55.909Z,98146.60
2017-11-27T08:09:59.058Z,98147.88
2017-11-27T08:11:01.758Z,98165.86
2017-11-27T08:12:04.469Z,98143.34
2017-11-27T08:13:07.816Z,98152.73
2017-11-27T08:14:10.949Z,98143.45
2017-11-27T08:15:13.654Z,98151.95
2017-11-27T08:16:16.251Z,98140.58
2017-11-27T08:17:18.865Z,98148.98
2017-11-27T08:18:21.575Z,98138.02
2017-11-27T08:19:24.169Z,98127.08
2017-11-27T08:20:27.172Z,98138.53
2017-11-27T08:21:30.052Z,98138.27
2017-11-27T08:22:32.717Z,98126.60
2017-11-27T08:23:35.322Z,98139.23
2017-11-27T08:24:38.539Z,98141.83
2017-11-27T08:25:41.192Z,98122.86
2017-11-27T08:26:44.180Z,98121.20
2017-11-27T08:27:46.863Z,98155.07
2017-11-27T08:28:49.474Z,98132.73
2017-11-27T08:29:52.060Z,98149.34
2017-11-27T08:30:54.708Z,98122.59
2017-11-27T08:31:57.526Z,98139.48
2017-11-27T08:33:00.606Z,98110.72
2017-11-27T08:34:03.258Z,98115.27
2017-11-27T08:35:05.913Z,98127.89
2017-11-27T08:36:08.523Z,98125.72
2017-11-27T08:37:11.188Z,98139.23
2017-11-27T08:38:13.848Z,98119.97
2017-11-27T08:39:16.935Z,98123.63
2017-11-27T08:40:19.535Z,98119.11
2017-11-27T08:41:22.205Z,98126.09
2017-11-27T08:42:24.811Z,98135.11
2017-11-27T08:43:27.432Z,98114.45
2017-11-27T08:44:30.045Z,98108.33
2017-11-27T08:45:33.020Z,98121.06
2017-11-27T08:46:35.681Z,98100.04
2017-11-27T08:47:38.349Z,98099.74
2017-11-27T08:48:40.935Z,98102.31
2017-11-27T08:49:43.571Z,98095.20
2017-11-27T08:50:46.166Z,98107.85
2017-11-27T08:51:49.259Z,98113.79
2017-11-27T08:52:51.886Z,98098.16
2017-11-27T08:53:54.571Z,98086.61
2017-11-27T08:54:57.244Z,98090.75
2017-11-27T08:55:59.996Z,98091.27
2017-11-27T08:57:02.709Z,98084.77
2017-11-27T08:58:05.771Z,98087.03
2017-11-27T08:59:08.490Z,98069.94
2017-11-27T09:00:11.281Z,98087.11
2017-11-27T09:01:13.961Z,98080.59
2017-11-27T09:02:16.601Z,98078.92
2017-11-27T09:03:19.325Z,98077.34
2017-11-27T09:04:22.393Z,98070.05
2017-11-27T09:05:25.010Z,98062.63
2017-11-27T09:06:27.791Z,98064.98
2017-11-27T09:07:30.437Z,98077.64
2017-11-27T09:08:33.081Z,98083.77
2017-11-27T09:09:35.731Z,98051.88
2017-11-27T09:10:38.915Z,98086.04
2017-11-27T09:11:41.538Z,98063.83
2017-11-27T09:12:44.301Z,98056.52
2017-11-27T09:13:46.927Z,98064.22
2017-11-27T09:14:49.544Z,98057.99
2017-11-27T09:15:52.164Z,98065.40
2017-11-27T09:16:55.185Z,98057.80
2017-11-27T09:17:57.858Z,98077.07
2017-11-27T09:19:00.482Z,98057.30
2017-11-27T09:20:03.166Z,98061.44
2017-11-27T09:21:05.792Z,98051.48
2017-11-27T09:22:08.408Z,98050.67
2017-11-27T09:23:11.334Z,98041.02
2017-11-27T09:24:13.992Z,98035.77
2017-11-27T09:25:16.579Z,98047.25
2017-11-27T09:26:19.236Z,98043.18
2017-11-27T09:27:21.981Z,98039.63
2017-11-27T09:28:24.691Z,98021.05
2017-11-27T09:29:27.729Z,98037.95
2017-11-27T09:30:30.420Z,98041.41
2017-11-27T09:31:33.050Z,98031.03
2017-11-27T09:32:35.580Z,98021.04
2017-11-27T09:33:38.086Z,98024.70
2017-11-27T09:34:40.623Z,98014.81
2017-11-27T09:35:43.643Z,98022.62
2017-11-27T09:36:46.231Z,98019.06
2017-11-27T09:37:48.816Z,98016.52
2017-11-27T09:38:51.453Z,98005.13
2017-11-27T09:39:53.986Z,98009.48
2017-11-27T09:40:56.543Z,98018.20
2017-11-27T09:41:59.531Z,98007.32
2017-11-27T09:43:02.291Z,98011.76
2017-11-27T09:44:04.914Z,98007.72
2017-11-27T09:45:07.652Z,97988.35
2017-11-27T09:46:10.366Z,97991.91
2017-11-27T09:47:13.027Z,98003.65
2017-11-27T09:48:16.067Z,97976.58
2017-11-27T09:49:18.735Z,97986.66
2017-11-27T09:50:21.358Z,97992.59
2017-11-27T09:51:25.135Z,97986.36
2017-11-27T09:52:27.862Z,97973.31
2017-11-27T09:53:30.505Z,97972.72
2017-11-27T09:54:33.210Z,97967.39
2017-11-27T09:55:35.803Z,97965.00
2017-11-27T09:56:38.511Z,97981.03
2017-11-27T09:57:41.133Z,97971.73
2017-11-27T09:58:43.735Z,97948.88
2017-11-27T09:59:46.704Z,97955.89
2017-11-27T10:00:49.330Z,97967.17
2017-11-27T10:01:51.964Z,97967.76
2017-11-27T10:02:54.679Z,97960.74
2017-11-27T10:03:57.337Z,97968.44
2017-11-27T10:05:00.414Z,97947.50
2017-11-27T10:06:03.385Z,97961.72
2017-11-27T10:07:06.088Z,97951.74
2017-11-27T10:08:08.713Z,97923.86
2017-11-27T10:09:11.524Z,97973.98
2017-11-27T10:10:14.200Z,97927.59
2017-11-27T10:11:16.838Z,97940.27
2017-11-27T10:12:19.908Z,97920.09
2017-11-27T10:13:22.527Z,97933.73
2017-11-27T10:14:25.157Z,97938.09
2017-11-27T10:15:28.656Z,97941.04
2017-11-27T10:16:31.476Z,97923.15
2017-11-27T10:17:34.557Z,97946.97
2017-11-27T10:18:37.755Z,97945.39
2017-11-27T10:19:40.416Z,97937.08
2017-11-27T10:20:44.571Z,97916.80
2017-11-27T10:21:47.275Z,97923.45
2017-11-27T10:22:49.888Z,97939.08
2017-11-27T10:23:53.047Z,97932.53
2017-11-27T10:24:56.901Z,97924.44
2017-11-27T10:26:00.486Z,97923.92
2017-11-27T10:27:10.094Z,97905.64
2017-11-27T10:28:13.773Z,97921.53
2017-11-27T10:29:17.897Z,97936.97
2017-11-27T10:30:20.608Z,97923.80
2017-11-27T10:31:23.696Z,97926.45
2017-11-27T10:32:26.657Z,97904.12
2017-11-27T10:33:29.295Z,97900.74
2017-11-27T10:34:31.910Z,97907.17
2017-11-27T10:35:34.550Z,97935.36
2017-11-27T10:36:37.867Z,97897.47
2017-11-27T10:37:40.823Z,97891.44
2017-11-27T10:38:43.471Z,97915.48
2017-11-27T10:39:46.298Z,97893.30
2017-11-27T10:40:49.812Z,97874.02
2017-11-27T10:41:52.541Z,97895.48
2017-11-27T10:42:55.189Z,97888.36
2017-11-27T10:43:59.850Z,97881.84
2017-11-27T10:45:03.137Z,97882.64
2017-11-27T10:46:06.215Z,97888.67
2017-11-27T10:47:08.927Z,97899.71
2017-11-27T10:48:11.649Z,97882.22
2017-11-27T10:49:15.465Z,97884.88
2017-11-27T10:50:19.370Z,97850.36
2017-11-27T10:51:22.104Z,97888.74
2017-11-27T10:52:25.208Z,97860.13
2017-11-27T10:53:27.944Z,97881.88
2017-11-27T10:54:30.593Z,97860.22
2017-11-27T10:55:33.668Z,97894.95
2017-11-27T10:56:36.908Z,97857.73
2017-11-27T10:57:39.562Z,97869.52
2017-11-27T10:58:42.226Z,97861.97
2017-11-27T10:59:44.875Z,97862.28
2017-11-27T11:00:51.544Z,97858.91
2017-11-27T11:01:55.377Z,97850.39
2017-11-27T11:02:58.075Z,97851.39
2017-11-27T11:04:00.726Z,97854.05
2017-11-27T11:05:03.408Z,97859.11
2017-11-27T11:06:06.072Z,97826.23
2017-11-27T11:07:08.697Z,97846.50
2017-11-27T11:08:11.319Z,97835.64
2017-11-27T11:09:14.374Z,97835.02
2017-11-27T11:10:16.990Z,97832.36
2017-11-27T11:11:19.666Z,97837.78
2017-11-27T11:12:22.295Z,97823.15
2017-11-27T11:13:25.226Z,97816.60
2017-11-27T11:14:28.916Z,97808.97
2017-11-27T11:15:31.983Z,97818.38
2017-11-27T11:16:34.617Z,97823.92
2017-11-27T11:17:37.528Z,97822.92
2017-11-27T11:18:40.174Z,97804.39
2017-11-27T11:19:42.853Z,97824.00
2017-11-27T11:20:45.439Z,97799.05
2017-11-27T11:21:48.494Z,97784.20
2017-11-27T11:22:51.139Z,97789.35
2017-11-27T11:23:53.865Z,97788.95
2017-11-27T11:24:56.685Z,97790.15
2017-11-27T11:25:59.324Z,97795.78
2017-11-27T11:27:02.027Z,97793.21
2017-11-27T11:28:05.000Z,97809.14
2017-11-27T11:29:07.670Z,97814.77
2017-11-27T11:30:10.377Z,97783.48
2017-11-27T11:31:13.070Z,97783.69
2017-11-27T11:32:15.767Z,97796.95
2017-11-27T11:33:18.368Z,97779.30
2017-11-27T11:34:21.329Z,97770.30
2017-11-27T11:35:23.989Z,97765.35
2017-11-27T11:36:26.684Z,97791.29
2017-11-27T11:37:29.341Z,97776.22
2017-11-27T11:38:31.985Z,97765.64
2017-11-27T11:39:34.842Z,97748.39
2017-11-27T11:40:37.980Z,97776.53
2017-11-27T11:41:40.666Z,97756.91
2017-11-27T11:42:43.293Z,97744.64
2017-11-27T11:43:46.680Z,97748.50
2017-11-27T11:44:49.291Z,97749.39
2017-11-27T11:45:51.949Z,97754.73
2017-11-27T11:46:54.836Z,97737.09
2017-11-27T11:47:57.540Z,97743.23
2017-11-27T11:49:00.148Z,97755.70
2017-11-27T11:50:02.800Z,97734.42
2017-11-27T11:51:05.435Z,97732.25
2017-11-27T11:52:08.670Z,97753.02
2017-11-27T11:53:11.573Z,97723.02
2017-11-27T11:54:14.266Z,97742.55
2017-11-27T11:55:16.876Z,97728.67
2017-11-27T11:56:19.532Z,97726.98
2017-11-27T11:57:22.613Z,97731.53
2017-11-27T11:58:25.288Z,97707.65
2017-11-27T11:59:28.424Z,97703.70
2017-11-27T12:00:31.021Z,97704.70
2017-11-27T12:01:33.998Z,97715.97
2017-11-27T12:02:36.638Z,97718.46
2017-11-27T12:03:39.321Z,97711.75
2017-11-27T12:04:41.930Z,97691.64
2017-11-27T12:05:44.875Z,97684.88
2017-11-27T12:06:47.527Z,97699.04
2017-11-27T12:07:50.209Z,97707.28
2017-11-27T12:08:52.809Z,97701.01
2017-11-27T12:09:55.422Z,97707.88
2017-11-27T12:10:58.103Z,97693.20
2017-11-27T12:12:00.799Z,97696.06
2017-11-27T12:13:03.450Z,97695.58
2017-11-27T12:14:06.241Z,97734.19
2017-11-27T12:15:10.339Z,97683.43
2017-11-27T12:16:13.040Z,97681.95
2017-11-27T12:17:16.086Z,97683.52
2017-11-27T12:18:18.800Z,97698.96
2017-11-27T12:19:21.713Z,97698.28